Time;durP1;ratioP1;P1;durP2;ratioP2;P2;SDS_P1;SDS_P2;PMS_P1;PMS_P2;Temp;Humidity;BMP_temperature;BMP_pressure;BME280_temperature;BME280_humidity;BME280_pressure;Samples;Min_cycle;Max_cycle;Signal;HPM_P1;HPM_P2
2023/03/14 00:00:15;;;;;;;41.27;16.10;;;5.70;64.70;;;5.55;48.43;95176.00;5058115;28;20977;-57
2023/03/14 00:02:42;;;;;;;27.60;15.40;;;5.70;64.70;;;5.55;48.29;95164.75;5063820;28;20824;-57
2023/03/14 00:05:10;;;;;;;29.17;14.70;;;5.60;64.40;;;5.53;48.35;95164.84;5069977;28;20458;-56
2023/03/14 00:07:38;;;;;;;25.23;15.07;;;5.60;64.40;;;5.53;48.40;95164.00;5068383;28;20536;-56
2023/03/14 00:10:06;;;;;;;24.63;14.37;;;5.60;64.40;;;5.49;48.30;95168.59;5070955;28;20894;-55
2023/03/14 00:12:34;;;;;;;22.03;13.70;;;5.60;64.50;;;5.49;48.77;95165.16;5074504;28;20471;-58
2023/03/14 00:15:03;;;;;;;28.07;13.60;;;5.60;65.10;;;5.47;48.55;95156.56;5065204;28;20455;-57
2023/03/14 00:17:31;;;;;;;28.07;15.67;;;5.60;64.90;;;5.47;49.24;95151.34;5068452;28;20987;-58
2023/03/14 00:20:04;;;;;;;34.57;14.43;;;5.60;66.00;;;5.45;49.17;95142.81;5079532;28;20518;-56
2023/03/14 00:22:31;;;;;;;28.90;14.40;;;5.60;66.10;;;5.46;49.16;95147.09;5070515;28;20466;-57
2023/03/14 00:24:59;;;;;;;34.53;14.30;;;5.60;66.00;;;5.46;49.07;95139.28;5075375;28;20439;-56
2023/03/14 00:27:26;;;;;;;37.87;14.90;;;5.50;66.00;;;5.44;49.13;95138.50;5080499;28;20503;-56
2023/03/14 00:29:53;;;;;;;21.27;14.00;;;5.50;66.00;;;5.44;48.79;95135.91;5066845;28;20505;-56
2023/03/14 00:32:21;;;;;;;24.40;13.93;;;5.50;65.30;;;5.43;48.58;95136.88;5062776;28;20479;-56
2023/03/14 00:34:49;;;;;;;30.70;15.00;;;5.50;65.30;;;5.42;48.62;95136.00;5076001;28;20564;-55
2023/03/14 00:37:17;;;;;;;29.87;13.60;;;5.50;65.40;;;5.42;48.35;95132.56;5068034;28;20557;-57
2023/03/14 00:39:44;;;;;;;28.03;14.83;;;5.50;64.80;;;5.41;48.44;95129.13;5062378;28;20487;-56
2023/03/14 00:42:11;;;;;;;25.20;14.33;;;5.50;65.30;;;5.41;48.94;95123.06;5072575;28;20844;-55
2023/03/14 00:44:39;;;;;;;21.33;13.60;;;5.50;65.90;;;5.42;48.74;95122.13;5065733;28;20455;-57
2023/03/14 00:47:06;;;;;;;26.37;14.40;;;5.50;65.30;;;5.40;48.96;95122.25;5065344;28;20474;-56
2023/03/14 00:49:33;;;;;;;25.30;14.07;;;5.50;65.60;;;5.37;49.01;95120.66;5068051;28;20515;-57
2023/03/14 00:52:02;;;;;;;30.33;15.80;;;5.50;65.50;;;5.35;48.94;95117.34;5070584;28;20478;-57
2023/03/14 00:54:29;;;;;;;27.80;15.80;;;5.50;65.90;;;5.32;48.85;95111.50;5062292;28;20463;-58
2023/03/14 00:56:57;;;;;;;29.23;15.50;;;5.40;65.80;;;5.30;48.98;95114.19;5069156;28;20483;-56
2023/03/14 00:59:24;;;;;;;31.50;15.90;;;5.40;65.80;;;5.28;48.98;95121.28;5077525;28;20493;-57
2023/03/14 01:01:51;;;;;;;32.70;16.07;;;5.40;65.80;;;5.24;49.12;95109.41;5067460;28;20477;-58
2023/03/14 01:04:18;;;;;;;32.27;17.30;;;5.40;65.90;;;5.21;48.95;95114.81;5059682;28;20517;-57
2023/03/14 01:06:46;;;;;;;26.80;15.60;;;5.30;65.70;;;5.17;49.10;95111.56;5076099;28;20524;-56
2023/03/14 01:09:16;;;;;;;29.57;15.67;;;5.30;65.80;;;5.14;49.23;95103.09;5073296;28;20527;-57
2023/03/14 01:11:46;;;;;;;35.57;17.60;;;5.30;65.70;;;5.11;49.27;95105.91;5054611;28;20475;-56
2023/03/14 01:14:13;;;;;;;31.77;16.10;;;5.20;65.90;;;5.06;49.12;95100.16;5069460;28;20466;-58
2023/03/14 01:16:40;;;;;;;34.13;17.23;;;5.20;65.80;;;5.01;49.18;95096.09;5069800;28;20483;-56
2023/03/14 01:19:08;;;;;;;34.03;16.00;;;5.20;66.10;;;4.99;49.09;95095.38;5065528;28;20451;-57
2023/03/14 01:21:35;;;;;;;34.10;17.13;;;5.10;66.10;;;4.96;48.82;95086.91;5064069;28;20555;-57
2023/03/14 01:24:04;;;;;;;35.43;16.03;;;5.10;66.00;;;4.93;49.28;95080.13;5065011;28;20454;-58
2023/03/14 01:26:34;;;;;;;34.23;16.33;;;5.10;66.30;;;4.90;49.15;95085.53;5065075;28;20518;-56
2023/03/14 01:29:01;;;;;;;31.33;16.03;;;5.00;66.30;;;4.87;49.72;95080.53;5056277;28;20464;-56
2023/03/14 01:31:28;;;;;;;33.23;17.00;;;5.00;66.50;;;4.84;49.47;95080.72;5062356;28;21072;-56
2023/03/14 01:33:56;;;;;;;31.47;15.83;;;5.00;66.70;;;4.82;49.32;95080.00;5074925;28;20454;-56
2023/03/14 01:36:23;;;;;;;32.67;16.83;;;5.00;66.80;;;4.80;49.53;95076.63;5066453;28;20461;-57
2023/03/14 01:38:50;;;;;;;27.90;15.23;;;4.90;67.00;;;4.75;49.74;95076.09;5073228;28;20536;-56
2023/03/14 01:41:20;;;;;;;35.83;15.90;;;4.90;67.30;;;4.74;49.79;95079.63;5070700;28;21017;-56
2023/03/14 01:43:49;;;;;;;28.20;14.80;;;4.90;67.90;;;4.70;49.77;95073.78;5059087;28;20459;-57
2023/03/14 01:46:26;;;;;;;27.50;13.90;;;4.80;67.00;;;4.65;49.50;95066.28;5071470;28;20846;-58
2023/03/14 01:48:58;;;;;;;30.57;14.70;;;4.80;67.10;;;4.65;49.46;95062.84;5063836;28;20481;-57
2023/03/14 01:51:30;;;;;;;25.13;13.70;;;4.80;67.20;;;4.65;49.94;95060.25;5058712;28;20458;-57
2023/03/14 01:54:03;;;;;;;26.50;14.40;;;4.80;67.20;;;4.64;49.88;95063.78;5067823;28;20454;-56
2023/03/14 01:56:31;;;;;;;32.63;13.77;;;4.80;67.40;;;4.64;49.93;95061.16;5071061;28;20487;-58
2023/03/14 01:58:59;;;;;;;24.37;13.00;;;4.80;67.70;;;4.62;49.74;95053.44;5069561;28;20455;-57
2023/03/14 02:01:27;;;;;;;22.13;13.70;;;4.80;67.40;;;4.61;49.68;95053.56;5063999;28;20598;-57
2023/03/14 02:03:55;;;;;;;19.17;11.13;;;4.80;67.50;;;4.59;50.02;95056.25;5075205;28;20453;-56
2023/03/14 02:06:25;;;;;;;21.93;12.50;;;4.70;67.70;;;4.59;49.85;95051.03;5066045;28;20461;-56
2023/03/14 02:08:52;;;;;;;23.80;12.87;;;4.70;67.60;;;4.58;50.19;95051.97;5055999;28;20456;-57
2023/03/14 02:11:20;;;;;;;22.20;13.40;;;4.70;68.10;;;4.56;49.77;95053.84;5073287;28;20553;-56
2023/03/14 02:13:47;;;;;;;26.20;13.57;;;4.70;68.30;;;4.56;50.32;95050.41;5070986;28;20646;-57
2023/03/14 02:16:16;;;;;;;24.47;14.30;;;4.70;68.30;;;4.57;49.85;95052.06;5060968;28;20463;-56
2023/03/14 02:18:43;;;;;;;22.60;13.33;;;4.70;68.30;;;4.56;50.11;95050.41;5062638;28;20892;-57
2023/03/14 02:21:15;;;;;;;20.53;12.27;;;4.70;68.20;;;4.55;49.91;95044.34;5072294;28;21341;-58
2023/03/14 02:23:47;;;;;;;21.27;14.03;;;4.70;68.00;;;4.55;49.83;95046.94;5063252;28;20447;-55
2023/03/14 02:26:18;;;;;;;22.50;12.60;;;4.70;67.90;;;4.53;50.17;95046.22;5069344;28;20551;-57
2023/03/14 02:28:46;;;;;;;21.37;13.10;;;4.70;68.20;;;4.53;49.66;95056.66;5072818;28;20451;-56
2023/03/14 02:31:14;;;;;;;32.60;13.60;;;4.70;67.80;;;4.51;49.54;95055.91;5063498;28;20517;-56
2023/03/14 02:33:41;;;;;;;23.70;12.30;;;4.60;67.80;;;4.47;50.08;95047.44;5066094;28;20466;-57
2023/03/14 02:36:12;;;;;;;22.87;11.90;;;4.60;67.90;;;4.48;49.86;95053.50;5076692;28;20500;-58
2023/03/14 02:38:42;;;;;;;20.37;11.37;;;4.60;68.20;;;4.47;49.66;95054.44;5075852;28;20457;-56
2023/03/14 02:41:09;;;;;;;21.03;13.43;;;4.60;68.00;;;4.47;49.88;95057.03;5063114;28;20485;-57
2023/03/14 02:43:37;;;;;;;18.27;11.80;;;4.60;67.80;;;4.46;49.38;95055.34;5079776;28;20463;-55
2023/03/14 02:46:06;;;;;;;23.30;14.43;;;4.60;67.90;;;4.44;49.87;95049.41;5074916;28;20463;-55
2023/03/14 02:48:36;;;;;;;22.80;13.07;;;4.60;67.80;;;4.40;49.84;95051.41;5071239;28;20461;-57
2023/03/14 02:51:03;;;;;;;23.10;14.57;;;4.50;67.90;;;4.37;49.68;95053.34;5075996;28;20455;-56
2023/03/14 02:53:32;;;;;;;21.47;12.17;;;4.50;68.10;;;4.34;50.18;95058.75;5077602;28;20523;-57
2023/03/14 02:55:59;;;;;;;25.40;13.50;;;4.50;68.10;;;4.30;49.66;95058.09;5067386;28;20462;-56
2023/03/14 02:58:27;;;;;;;25.23;12.73;;;4.50;68.20;;;4.28;50.34;95055.59;5074359;28;20481;-55
2023/03/14 03:00:54;;;;;;;21.40;12.93;;;4.50;68.40;;;4.26;50.51;95057.47;5077420;28;20501;-56
2023/03/14 03:03:23;;;;;;;26.40;13.03;;;4.40;68.50;;;4.25;49.85;95053.19;5074378;28;20474;-58
2023/03/14 03:05:51;;;;;;;24.33;13.30;;;4.40;68.50;;;4.24;50.25;95055.91;5069812;28;21014;-59
2023/03/14 03:08:18;;;;;;;19.90;13.20;;;4.40;68.60;;;4.20;50.74;95055.25;5077738;28;20531;-57
2023/03/14 03:10:46;;;;;;;24.70;13.20;;;4.40;68.80;;;4.21;49.73;95062.13;5075225;28;20455;-57
2023/03/14 03:13:13;;;;;;;21.13;12.00;;;4.30;68.50;;;4.20;50.63;95064.81;5071883;28;20501;-55
2023/03/14 03:15:40;;;;;;;17.87;12.00;;;4.30;68.70;;;4.18;50.64;95056.28;5082318;28;20997;-56
2023/03/14 03:18:08;;;;;;;20.30;11.83;;;4.30;68.70;;;4.18;50.56;95059.72;5074387;28;20481;-56
2023/03/14 03:20:36;;;;;;;20.00;12.33;;;4.30;68.90;;;4.17;50.31;95050.25;5071605;28;20873;-57
2023/03/14 03:23:04;;;;;;;23.17;12.90;;;4.30;69.30;;;4.16;50.61;95052.94;5081713;28;20511;-57
2023/03/14 03:25:31;;;;;;;24.50;11.00;;;4.30;68.80;;;4.12;50.34;95052.28;5076891;28;20836;-57
2023/03/14 03:27:58;;;;;;;20.07;10.80;;;4.30;68.90;;;4.10;50.70;95054.16;5072860;28;20469;-56
2023/03/14 03:30:25;;;;;;;16.50;11.70;;;4.30;69.00;;;4.10;50.20;95048.94;5075002;28;20453;-57
2023/03/14 03:32:53;;;;;;;18.80;11.30;;;4.30;69.10;;;4.08;50.60;95048.22;5079416;28;20495;-57
2023/03/14 03:35:20;;;;;;;20.53;10.87;;;4.20;69.10;;;4.06;50.41;95052.66;5071707;28;20691;-57
2023/03/14 03:37:49;;;;;;;18.40;11.80;;;4.20;69.00;;;4.05;50.16;95054.44;5072014;28;20478;-57
2023/03/14 03:40:16;;;;;;;19.17;11.03;;;4.20;69.10;;;4.03;50.00;95053.72;5071196;28;21017;-57
2023/03/14 03:42:44;;;;;;;19.30;10.43;;;4.20;69.10;;;4.02;50.06;95059.84;5066202;28;20482;-56
2023/03/14 03:45:11;;;;;;;16.43;11.57;;;4.20;69.10;;;4.00;50.16;95063.47;5071078;28;20458;-55
2023/03/14 03:47:38;;;;;;;21.10;10.97;;;4.20;69.00;;;3.95;50.96;95056.78;5075086;28;20546;-56
2023/03/14 03:50:07;;;;;;;24.43;11.97;;;4.20;69.10;;;3.95;50.98;95055.97;5075702;28;20512;-56
2023/03/14 03:52:34;;;;;;;21.10;11.77;;;4.10;69.50;;;3.94;50.26;95046.47;5069337;28;20997;-57
2023/03/14 03:55:04;;;;;;;20.10;10.90;;;4.10;69.30;;;3.93;50.27;95066.47;5076660;28;20494;-57
2023/03/14 03:57:31;;;;;;;23.37;12.63;;;4.10;69.30;;;3.94;50.64;95059.50;5068949;28;20483;-55
2023/03/14 03:59:58;;;;;;;19.30;11.50;;;4.10;69.30;;;3.93;50.85;95060.41;5067211;28;20455;-58
2023/03/14 04:02:25;;;;;;;22.13;11.57;;;4.10;69.40;;;3.92;50.26;95056.97;5076086;28;20497;-58
2023/03/14 04:04:53;;;;;;;29.27;10.30;;;4.10;69.50;;;3.90;50.49;95058.84;5073861;28;20935;-56
2023/03/14 04:07:20;;;;;;;17.47;11.23;;;4.00;69.30;;;3.91;50.26;95059.69;5065982;28;20480;-56
2023/03/14 04:09:47;;;;;;;17.87;10.90;;;4.10;69.50;;;3.90;50.62;95058.84;5067566;28;20482;-56
2023/03/14 04:12:16;;;;;;;15.10;10.23;;;4.00;69.50;;;3.88;50.74;95055.50;5079390;28;21007;-57
2023/03/14 04:14:43;;;;;;;17.03;9.67;;;4.00;69.50;;;3.87;50.40;95050.38;5068671;28;20453;-55
2023/03/14 04:17:11;;;;;;;18.83;10.70;;;4.00;69.70;;;3.88;50.67;95045.06;5068291;28;21048;-57
2023/03/14 04:19:38;;;;;;;17.47;10.73;;;4.00;69.70;;;3.88;50.71;95045.06;5074140;28;20965;-57
2023/03/14 04:22:05;;;;;;;16.03;9.47;;;4.00;69.50;;;3.86;50.77;95044.34;5068133;28;20498;-57
2023/03/14 04:24:32;;;;;;;17.20;10.00;;;4.00;69.50;;;3.86;49.80;95043.53;5065000;28;20447;-56
2023/03/14 04:27:00;;;;;;;20.17;11.37;;;4.00;69.40;;;3.85;50.54;95037.47;5075262;28;20478;-57
2023/03/14 04:29:28;;;;;;;17.97;10.10;;;4.00;69.40;;;3.84;50.50;95033.22;5069496;28;20980;-56
2023/03/14 04:31:56;;;;;;;18.43;11.67;;;4.00;69.60;;;3.84;50.62;95030.59;5063047;28;20536;-58
2023/03/14 04:34:23;;;;;;;19.20;11.07;;;4.00;69.70;;;3.83;50.69;95028.09;5073101;28;20458;-57
2023/03/14 04:36:50;;;;;;;18.23;9.20;;;4.00;69.80;;;3.82;50.61;95029.84;5059176;28;20483;-57
2023/03/14 04:39:18;;;;;;;19.27;10.47;;;4.00;69.50;;;3.82;50.64;95024.66;5064401;28;20463;-57
2023/03/14 04:41:46;;;;;;;19.60;8.80;;;4.00;69.70;;;3.82;51.37;95016.84;5065274;28;20971;-57
2023/03/14 04:44:13;;;;;;;16.00;9.80;;;4.00;70.50;;;3.81;50.94;95012.59;5069030;28;20999;-58
2023/03/14 04:46:42;;;;;;;17.90;9.17;;;4.00;70.20;;;3.82;50.69;95013.41;5068435;28;21042;-56
2023/03/14 04:49:09;;;;;;;17.90;10.00;;;4.00;70.30;;;3.82;50.61;95011.63;5066091;28;20446;-56
2023/03/14 04:51:37;;;;;;;15.73;9.83;;;4.00;70.60;;;3.84;51.32;95014.16;5074267;28;20478;-58
2023/03/14 04:54:04;;;;;;;14.03;9.20;;;4.00;70.80;;;3.84;51.00;95011.53;5072246;28;20450;-57
2023/03/14 04:56:32;;;;;;;26.53;10.00;;;4.00;70.90;;;3.83;51.24;95015.09;5054393;28;20892;-57
2023/03/14 04:58:59;;;;;;;15.80;9.63;;;4.00;70.90;;;3.84;50.77;95007.19;5067346;28;20443;-58
2023/03/14 05:01:26;;;;;;;23.00;10.97;;;4.00;70.50;;;3.86;51.22;95007.09;5066302;28;20548;-57
2023/03/14 05:03:55;;;;;;;17.30;9.40;;;4.00;70.80;;;3.90;50.70;95012.03;5049439;28;20460;-58
2023/03/14 05:06:22;;;;;;;15.80;10.37;;;4.00;70.80;;;3.91;51.03;95005.88;5070070;28;20961;-55
2023/03/14 05:08:49;;;;;;;20.40;9.93;;;4.10;71.10;;;3.99;51.35;95005.38;5065889;28;20520;-57
2023/03/14 05:11:17;;;;;;;17.60;9.63;;;4.10;71.00;;;4.03;50.83;95009.47;5066694;28;20513;-57
2023/03/14 05:13:44;;;;;;;22.67;9.47;;;4.20;71.00;;;4.07;50.84;95003.13;5055768;28;20442;-56
2023/03/14 05:16:12;;;;;;;16.53;10.60;;;4.20;70.50;;;4.13;50.36;95004.50;5073872;28;20445;-55
2023/03/14 05:18:39;;;;;;;17.47;10.57;;;4.30;70.30;;;4.17;50.82;95008.59;5068869;28;20450;-58
2023/03/14 05:21:08;;;;;;;15.63;9.77;;;4.30;70.40;;;4.20;50.61;95010.16;5066394;28;20806;-57
2023/03/14 05:23:35;;;;;;;23.03;10.53;;;4.30;70.40;;;4.29;50.03;95001.75;5071900;28;20804;-56
2023/03/14 05:26:02;;;;;;;18.80;9.93;;;4.40;70.40;;;4.39;50.33;95004.63;5068040;28;20435;-55
2023/03/14 05:28:30;;;;;;;17.50;9.87;;;4.50;70.30;;;4.47;50.50;95010.16;5066210;28;20478;-57
2023/03/14 05:30:57;;;;;;;26.30;11.53;;;4.60;70.70;;;4.52;50.00;95007.25;5072861;28;20466;-56
2023/03/14 05:33:25;;;;;;;25.17;9.30;;;4.60;70.10;;;4.57;50.23;95005.19;5072189;28;20478;-56
2023/03/14 05:35:52;;;;;;;19.20;9.33;;;4.70;70.20;;;4.62;50.06;95013.56;5070527;28;20523;-56
2023/03/14 05:38:21;;;;;;;27.57;10.40;;;4.70;69.80;;;4.69;49.88;95011.38;5067089;28;20486;-57
2023/03/14 05:40:49;;;;;;;15.70;10.20;;;4.80;69.60;;;4.74;49.94;95009.28;5076680;28;20486;-56
2023/03/14 05:43:16;;;;;;;18.03;10.30;;;4.80;69.40;;;4.78;49.50;95008.97;5072079;28;20544;-57
2023/03/14 05:45:43;;;;;;;16.30;9.83;;;4.90;69.10;;;4.84;49.52;95007.75;5067197;28;20446;-57
2023/03/14 05:48:11;;;;;;;14.93;9.53;;;4.90;68.70;;;4.90;49.54;94998.72;5077069;28;20470;-58
2023/03/14 05:50:38;;;;;;;13.83;8.60;;;5.00;69.00;;;4.96;49.26;95000.91;5073574;28;21024;-56
2023/03/14 05:53:06;;;;;;;26.00;10.33;;;5.10;68.80;;;5.01;49.02;95006.63;5067636;28;20473;-56
2023/03/14 05:55:34;;;;;;;28.70;9.57;;;5.10;68.30;;;5.07;49.06;95002.78;5078959;28;20453;-56
2023/03/14 05:58:01;;;;;;;42.07;9.07;;;5.20;68.20;;;5.13;48.92;94999.78;5070798;28;21359;-56
2023/03/14 06:00:29;;;;;;;25.37;9.53;;;5.20;68.00;;;5.19;48.71;95001.97;5067888;28;20451;-58
2023/03/14 06:02:56;;;;;;;28.93;9.23;;;5.30;68.00;;;5.27;48.98;94994.44;5077535;28;20543;-57
2023/03/14 06:05:23;;;;;;;19.80;9.90;;;5.30;68.10;;;5.37;48.84;95007.69;5063235;28;20459;-57
2023/03/14 06:07:51;;;;;;;18.73;9.97;;;5.40;68.00;;;5.47;48.59;95005.28;5064377;28;20480;-57
2023/03/14 06:10:18;;;;;;;25.00;9.03;;;5.50;67.70;;;5.59;48.23;94993.16;5061973;28;20454;-57
2023/03/14 06:12:46;;;;;;;25.23;9.73;;;5.60;67.30;;;5.71;47.97;95003.56;5075471;28;20470;-56
2023/03/14 06:15:14;;;;;;;22.70;10.03;;;5.70;67.20;;;5.88;47.78;94998.97;5058701;28;20936;-58
2023/03/14 06:17:41;;;;;;;18.43;10.73;;;5.90;66.90;;;6.02;47.52;94996.22;5067202;28;20821;-58
2023/03/14 06:20:10;;;;;;;20.83;11.33;;;6.00;66.50;;;6.21;47.66;95010.59;5078512;28;20485;-58
2023/03/14 06:22:38;;;;;;;26.83;13.50;;;6.20;66.60;;;6.43;47.30;95000.28;5067606;28;20576;-58
2023/03/14 06:25:06;;;;;;;26.07;10.17;;;6.40;66.80;;;6.70;46.89;95012.25;5052978;28;20452;-57
2023/03/14 06:27:33;;;;;;;15.63;9.13;;;6.70;66.20;;;6.96;46.67;95001.66;5078894;28;20530;-56
2023/03/14 06:30:02;;;;;;;29.10;10.43;;;6.90;65.70;;;7.24;46.52;95004.81;5063166;28;20452;-58
2023/03/14 06:32:30;;;;;;;11.83;9.40;;;7.10;64.70;;;7.52;45.95;94993.09;5061148;28;21061;-58
2023/03/14 06:35:00;;;;;;;17.50;10.57;;;7.40;64.10;;;7.81;45.47;94990.81;5074908;28;20454;-57
2023/03/14 06:37:28;;;;;;;15.13;9.23;;;7.70;63.60;;;8.12;45.10;94988.41;5075880;28;21029;-57
2023/03/14 06:39:55;;;;;;;29.43;11.50;;;8.00;63.20;;;8.41;44.99;94996.56;5068799;28;20449;-57
2023/03/14 06:42:22;;;;;;;13.50;10.43;;;8.30;62.80;;;8.70;44.35;94995.19;5073826;28;20497;-57
2023/03/14 06:44:50;;;;;;;15.90;10.47;;;8.60;62.50;;;9.03;43.74;94988.97;5075424;28;20451;-57
2023/03/14 06:47:18;;;;;;;26.90;10.47;;;8.90;61.20;;;9.31;42.85;94991.88;5069341;28;20478;-56
2023/03/14 06:49:45;;;;;;;18.70;10.33;;;9.20;59.80;;;9.56;44.16;94977.53;5068909;28;20451;-56
2023/03/14 06:52:13;;;;;;;20.40;10.77;;;9.40;62.60;;;9.90;44.51;94973.78;5079060;28;20463;-57
2023/03/14 06:54:40;;;;;;;20.03;10.40;;;9.70;62.90;;;10.24;42.48;94963.78;5070794;28;20451;-57
2023/03/14 06:57:07;;;;;;;19.97;11.13;;;10.10;58.70;;;10.53;42.60;94963.88;5066576;28;20483;-59
2023/03/14 06:59:35;;;;;;;16.67;10.90;;;10.40;59.10;;;10.74;42.00;94961.09;5071622;28;20449;-58
2023/03/14 07:02:02;;;;;;;18.27;10.77;;;10.60;58.30;;;11.07;41.49;94963.44;5073093;28;20494;-58
2023/03/14 07:04:30;;;;;;;16.40;10.70;;;10.90;57.70;;;11.38;41.29;94961.41;5067788;28;20455;-56
2023/03/14 07:06:58;;;;;;;23.47;13.17;;;11.20;57.30;;;11.72;40.97;94963.53;5075041;28;20912;-56
2023/03/14 07:09:25;;;;;;;22.23;12.27;;;11.50;57.00;;;12.06;40.36;94954.28;5074505;28;20450;-59
2023/03/14 07:11:52;;;;;;;30.73;13.70;;;11.80;56.30;;;12.27;40.43;94961.91;5069767;28;20537;-58
2023/03/14 07:14:20;;;;;;;27.47;12.80;;;12.00;55.80;;;12.45;39.88;94965.41;5073569;28;20449;-57
2023/03/14 07:16:47;;;;;;;27.20;13.03;;;12.20;55.30;;;12.71;38.82;94968.16;5076015;28;20483;-57
2023/03/14 07:19:14;;;;;;;26.37;12.73;;;12.50;53.80;;;13.03;37.48;94960.69;5071634;28;20473;-56
2023/03/14 07:21:43;;;;;;;25.00;13.43;;;12.80;52.70;;;13.43;38.49;94960.19;5074365;28;20534;-55
2023/03/14 07:24:10;;;;;;;22.93;12.77;;;13.10;53.80;;;13.89;37.88;94957.28;5074640;28;21225;-58
2023/03/14 07:26:37;;;;;;;18.97;12.13;;;13.60;53.70;;;14.38;37.70;94953.19;5074923;28;20470;-61
2023/03/14 07:29:04;;;;;;;38.33;12.33;;;14.00;53.10;;;14.84;37.07;94949.16;5070769;28;20874;-58
2023/03/14 07:31:32;;;;;;;26.63;12.67;;;14.40;52.70;;;15.32;33.84;94940.53;5077833;28;20478;-57
2023/03/14 07:33:59;;;;;;;27.33;12.33;;;14.90;49.40;;;15.73;35.22;94932.53;5077346;28;20451;-58
2023/03/14 07:36:27;;;;;;;26.47;13.17;;;15.30;49.20;;;16.12;35.18;94931.75;5071543;28;20485;-57
2023/03/14 07:38:55;;;;;;;55.50;13.57;;;15.70;49.20;;;16.55;35.65;94936.69;5078588;28;21315;-58
2023/03/14 07:41:22;;;;;;;28.43;13.80;;;16.20;50.70;;;17.00;34.85;94935.09;5077499;28;20497;-57
2023/03/14 07:43:50;;;;;;;25.77;13.20;;;16.70;48.50;;;17.45;33.73;94932.53;5073597;28;20842;-57
2023/03/14 07:46:17;;;;;;;31.50;13.33;;;17.20;46.80;;;17.81;33.28;94927.34;5075132;28;20458;-58
2023/03/14 07:48:44;;;;;;;30.87;13.80;;;17.60;46.00;;;18.17;33.71;94925.78;5079410;28;20520;-56
2023/03/14 07:51:11;;;;;;;29.23;14.20;;;18.00;47.60;;;18.50;34.19;94931.53;5072865;28;20451;-59
2023/03/14 07:53:39;;;;;;;31.23;14.90;;;18.50;47.90;;;18.88;31.97;94933.19;5070743;28;20525;-58
2023/03/14 07:56:08;;;;;;;21.50;13.80;;;18.90;45.20;;;19.20;31.75;94926.53;5081312;28;20465;-57
2023/03/14 07:58:36;;;;;;;22.87;13.73;;;19.30;44.10;;;19.46;31.27;94919.78;5071731;28;20450;-57
2023/03/14 08:01:03;;;;;;;27.57;14.77;;;19.60;42.70;;;19.64;29.93;94909.44;5069968;28;20451;-57
2023/03/14 08:03:31;;;;;;;20.87;13.23;;;19.80;40.60;;;19.76;29.86;94914.22;5080899;28;21102;-59
2023/03/14 08:05:58;;;;;;;32.40;14.17;;;19.90;40.90;;;19.90;30.74;94907.97;5075365;28;20459;-59
2023/03/14 08:08:25;;;;;;;32.57;16.50;;;20.00;42.60;;;20.06;30.68;94917.47;5071143;28;20475;-58
2023/03/14 08:10:53;;;;;;;21.47;15.00;;;20.20;43.00;;;20.21;27.94;94912.03;5078737;28;20447;-57
2023/03/14 08:13:23;;;;;;;26.47;15.67;;;20.30;39.10;;;20.25;29.78;94907.94;5079317;28;20474;-57
2023/03/14 08:15:50;;;;;;;30.43;15.83;;;20.40;41.70;;;20.29;29.88;94913.69;5071375;28;20446;-59
2023/03/14 08:18:18;;;;;;;27.10;15.20;;;20.40;42.10;;;20.41;28.86;94904.91;5073988;28;20585;-56
2023/03/14 08:20:45;;;;;;;21.60;15.07;;;20.50;40.80;;;20.52;28.75;94910.72;5078933;28;20455;-58
2023/03/14 08:23:12;;;;;;;29.13;16.43;;;20.60;40.10;;;20.41;28.16;94912.91;5072126;28;20499;-58
2023/03/14 08:25:39;;;;;;;30.10;16.10;;;20.60;39.50;;;20.35;29.05;94911.03;5071055;28;20558;-58
2023/03/14 08:28:07;;;;;;;22.67;14.80;;;20.50;40.50;;;20.36;27.36;94910.03;5069860;28;20574;-57
2023/03/14 08:30:35;;;;;;;25.93;15.20;;;20.50;37.70;;;20.27;27.99;94910.41;5073665;28;20451;-59
2023/03/14 08:33:03;;;;;;;25.23;13.80;;;20.40;38.80;;;20.10;26.78;94899.25;5056691;28;21044;-58
2023/03/14 08:35:30;;;;;;;21.50;13.97;;;20.30;37.20;;;19.89;26.80;94895.63;5072509;28;20532;-58
2023/03/14 08:37:57;;;;;;;27.13;15.80;;;20.10;37.80;;;19.76;27.97;94887.53;5070814;28;20475;-59
2023/03/14 08:40:25;;;;;;;25.83;14.20;;;19.90;37.80;;;19.74;27.82;94890.41;5054106;28;20448;-58
2023/03/14 08:42:52;;;;;;;21.50;13.53;;;19.80;38.10;;;19.73;27.06;94886.06;5073092;28;20585;-57
2023/03/14 08:45:20;;;;;;;23.37;13.13;;;19.70;38.10;;;19.73;27.12;94877.25;5068755;28;20452;-59
2023/03/14 08:47:48;;;;;;;37.13;14.90;;;19.60;37.80;;;19.77;27.26;94871.34;5067509;28;20463;-57
2023/03/14 08:50:15;;;;;;;29.03;15.10;;;19.60;37.60;;;19.78;27.10;94872.16;5063276;28;20469;-59
2023/03/14 08:52:43;;;;;;;33.33;15.10;;;19.60;38.10;;;19.83;27.03;94862.56;5070721;28;20546;-58
2023/03/14 08:55:10;;;;;;;25.70;15.37;;;19.60;37.60;;;19.90;26.37;94862.56;5065434;28;20727;-56
2023/03/14 08:57:38;;;;;;;25.90;15.40;;;19.60;36.80;;;19.91;26.91;94853.56;5063333;28;20481;-58
2023/03/14 09:00:10;;;;;;;55.73;15.87;;;19.60;37.00;;;19.95;26.91;94849.44;5077844;28;20449;-58
2023/03/14 09:02:37;;;;;;;24.33;13.03;;;19.70;37.60;;;20.00;26.91;94846.19;5062839;28;20500;-58
2023/03/14 09:05:07;;;;;;;20.70;10.97;;;19.70;37.70;;;20.02;26.19;94841.50;5059306;28;20452;-56
2023/03/14 09:07:34;;;;;;;20.43;12.10;;;19.70;36.20;;;19.95;26.17;94835.28;5070272;28;20479;-57
2023/03/14 09:10:02;;;;;;;24.73;11.90;;;19.70;36.00;;;19.86;26.40;94823.94;5065465;28;20451;-58
2023/03/14 09:12:29;;;;;;;14.90;9.47;;;19.60;36.10;;;19.92;26.36;94839.16;5056218;28;20475;-56
2023/03/14 09:14:56;;;;;;;24.53;9.00;;;19.60;36.30;;;20.04;26.33;94836.78;5069088;28;20442;-57
2023/03/14 09:17:23;;;;;;;14.10;8.20;;;19.70;36.40;;;20.06;26.23;94821.34;5058252;28;20479;-57
2023/03/14 09:19:51;;;;;;;16.10;8.80;;;19.70;36.40;;;20.11;25.24;94815.41;5064771;28;20462;-58
2023/03/14 09:22:20;;;;;;;14.77;8.60;;;19.80;35.00;;;20.16;24.81;94800.44;5064088;28;20487;-58
2023/03/14 09:24:47;;;;;;;18.90;8.50;;;19.80;34.40;;;20.14;25.38;94802.50;5070667;28;20511;-56
2023/03/14 09:27:14;;;;;;;10.77;7.60;;;19.80;34.80;;;20.13;25.42;94794.69;5056488;28;20995;-59
2023/03/14 09:29:42;;;;;;;18.53;7.80;;;19.80;35.90;;;20.05;26.21;94793.84;5063039;28;20523;-57
2023/03/14 09:32:09;;;;;;;12.10;7.13;;;19.80;35.70;;;19.93;25.68;94791.97;5071063;28;20477;-59
2023/03/14 09:34:36;;;;;;;11.30;7.20;;;19.70;35.90;;;19.94;25.85;94790.91;5068861;28;20457;-59
2023/03/14 09:37:03;;;;;;;10.13;6.70;;;19.60;35.80;;;19.95;25.32;94782.72;5066940;28;20478;-57
2023/03/14 09:39:32;;;;;;;13.13;6.93;;;19.70;35.30;;;19.91;25.07;94781.47;5077855;28;20456;-59
2023/03/14 09:42:00;;;;;;;9.60;6.80;;;19.60;35.10;;;19.87;24.09;94769.56;5069166;28;20466;-57
2023/03/14 09:44:29;;;;;;;13.20;5.83;;;19.60;33.70;;;19.90;25.56;94776.34;5067514;28;20939;-56
2023/03/14 09:46:58;;;;;;;11.80;5.30;;;19.60;35.30;;;19.79;25.07;94761.72;5070208;28;21170;-56
2023/03/14 09:49:29;;;;;;;9.27;5.97;;;19.50;34.70;;;19.67;24.42;94759.59;5077043;28;20453;-59
2023/03/14 09:51:58;;;;;;;8.13;5.73;;;19.50;33.70;;;19.60;25.04;94756.06;5070861;28;20854;-59
2023/03/14 09:54:35;;;;;;;5.73;5.13;;;19.30;34.00;;;19.50;25.15;94750.28;5073521;28;20450;-59
2023/03/14 09:57:03;;;;;;;7.37;6.07;;;19.30;34.30;;;19.44;25.43;94749.25;5075862;28;20481;-57
2023/03/14 09:59:31;;;;;;;10.17;5.70;;;19.20;34.50;;;19.52;25.41;94737.59;5072065;28;20549;-59
2023/03/14 10:02:00;;;;;;;8.43;5.60;;;19.20;34.70;;;19.58;25.08;94735.94;5071816;28;20475;-58
2023/03/14 10:04:27;;;;;;;7.17;5.07;;;19.30;34.80;;;19.66;25.74;94739.28;5076363;28;20454;-57
2023/03/14 10:06:54;;;;;;;8.57;5.30;;;19.30;35.40;;;19.71;25.48;94728.81;5073744;28;20519;-58
2023/03/14 10:09:25;;;;;;;46.47;17.53;;;19.50;34.70;;;19.77;24.80;94713.88;5066851;28;20472;-58
2023/03/14 10:11:55;;;;;;;18.00;7.20;;;19.50;34.50;;;19.87;24.50;94713.50;5080601;28;20466;-59
2023/03/14 10:14:33;;;;;;;11.20;5.73;;;19.60;34.50;;;19.93;24.48;94704.69;5072925;28;20962;-57
2023/03/14 10:17:11;;;;;;;11.13;7.27;;;19.60;34.40;;;19.92;25.03;94691.53;5065080;28;20475;-56
2023/03/14 10:19:38;;;;;;;10.93;5.03;;;19.70;34.40;;;19.95;24.43;94683.94;5079242;28;20982;-56